Time;durP1;ratioP1;P1;durP2;ratioP2;P2;SDS_P1;SDS_P2;PMS_P1;PMS_P2;Temp;Humidity;BMP_temperature;BMP_pressure;BME280_temperature;BME280_humidity;BME280_pressure;Samples;Min_cycle;Max_cycle;Signal;HPM_P1;HPM_P2
2022/02/28 00:02:04;;;;;;;11.17;8.93;;;1.00;90.20;;;;;;4959959;28;20490;-80
2022/02/28 00:04:31;;;;;;;13.73;9.30;;;0.90;90.00;;;;;;4978305;28;20467;-80
2022/02/28 00:07:01;;;;;;;11.70;9.50;;;0.90;89.40;;;;;;4978100;28;20454;-80
2022/02/28 00:09:31;;;;;;;11.90;9.67;;;0.90;88.90;;;;;;4977881;28;20956;-79
2022/02/28 00:12:00;;;;;;;11.77;9.10;;;0.90;88.80;;;;;;4978832;28;20853;-80
2022/02/28 00:14:31;;;;;;;10.50;7.37;;;1.10;87.80;;;;;;4959686;29;20452;-80
2022/02/28 00:17:00;;;;;;;10.37;7.50;;;1.20;87.10;;;;;;4959479;29;20964;-80
2022/02/28 00:19:27;;;;;;;11.02;7.55;;;1.20;85.80;;;;;;4978552;28;20451;-80
2022/02/28 00:22:02;;;;;;;12.20;6.70;;;1.10;85.40;;;;;;4978094;28;20663;-81
2022/02/28 00:24:37;;;;;;;10.67;7.83;;;1.40;84.50;;;;;;4978053;28;20516;-80
2022/02/28 00:27:07;;;;;;;9.33;6.40;;;1.20;82.70;;;;;;4977990;28;20480;-80
2022/02/28 00:29:39;;;;;;;11.55;6.45;;;1.40;81.90;;;;;;4978500;28;20482;-80
2022/02/28 00:32:10;;;;;;;9.70;6.43;;;1.40;81.50;;;;;;4978493;28;20220;-81
2022/02/28 00:34:36;;;;;;;11.77;6.70;;;1.20;81.10;;;;;;4978885;28;20459;-81
2022/02/28 00:37:06;;;;;;;11.17;6.40;;;1.50;81.20;;;;;;4982215;28;20203;-80
2022/02/28 00:39:35;;;;;;;19.53;6.50;;;1.30;82.00;;;;;;4981436;28;20542;-80
2022/02/28 00:42:04;;;;;;;10.20;6.90;;;1.30;81.80;;;;;;4981824;28;20573;-80
2022/02/28 00:44:31;;;;;;;10.75;6.40;;;1.10;82.80;;;;;;4982098;28;20210;-80
2022/02/28 00:46:58;;;;;;;10.07;6.87;;;1.10;83.60;;;;;;4981962;28;20255;-81
2022/02/28 00:49:25;;;;;;;13.20;7.70;;;1.00;84.70;;;;;;4982241;28;20969;-80
2022/02/28 00:51:52;;;;;;;12.07;8.20;;;1.00;85.10;;;;;;4981135;28;20478;-80
2022/02/28 00:54:19;;;;;;;11.35;7.25;;;1.10;85.70;;;;;;4981866;28;20455;-80
2022/02/28 00:56:47;;;;;;;12.03;7.73;;;0.80;85.40;;;;;;4982139;28;20206;-80
2022/02/28 00:59:15;;;;;;;9.00;7.03;;;0.90;86.00;;;;;;4981038;28;20478;-80
2022/02/28 01:01:42;;;;;;;10.25;7.75;;;0.80;86.30;;;;;;4981909;28;20518;-80
2022/02/28 01:04:09;;;;;;;11.17;7.90;;;0.70;86.60;;;;;;4981708;28;20259;-80
2022/02/28 01:06:36;;;;;;;12.77;8.47;;;0.80;87.40;;;;;;4982587;28;20455;-80
2022/02/28 01:09:04;;;;;;;12.70;8.53;;;0.80;87.00;;;;;;4980935;28;20951;-80
2022/02/28 01:11:32;;;;;;;10.07;7.53;;;0.70;87.00;;;;;;4981621;28;21001;-80
2022/02/28 01:14:00;;;;;;;11.67;7.60;;;0.80;86.30;;;;;;4981417;28;20459;-80
2022/02/28 01:16:27;;;;;;;11.10;8.13;;;0.70;85.30;;;;;;4981355;28;20834;-80
2022/02/28 01:18:55;;;;;;;15.60;7.27;;;0.80;85.00;;;;;;4981724;28;20479;-83
2022/02/28 01:21:22;;;;;;;8.93;6.80;;;0.90;84.60;;;;;;4981585;28;20898;-81
2022/02/28 01:23:49;;;;;;;14.57;7.47;;;0.80;84.10;;;;;;4981627;28;20566;-80
2022/02/28 01:26:16;;;;;;;12.37;7.97;;;0.70;84.60;;;;;;4981188;28;20494;-85
2022/02/28 01:28:43;;;;;;;8.93;7.32;;;0.70;85.00;;;;;;4981808;28;21026;-83
2022/02/28 01:31:11;;;;;;;16.67;8.20;;;0.60;85.00;;;;;;4981014;28;20211;-80
2022/02/28 01:33:38;;;;;;;14.77;8.37;;;0.40;85.10;;;;;;4980768;28;20202;-82
2022/02/28 01:36:06;;;;;;;12.15;8.27;;;0.60;85.40;;;;;;4980727;28;20482;-78
2022/02/28 01:38:33;;;;;;;43.30;29.97;;;0.60;85.30;;;;;;4980854;28;20214;-80
2022/02/28 01:41:00;;;;;;;15.80;8.10;;;0.40;85.80;;;;;;4980077;28;20566;-80
2022/02/28 01:43:27;;;;;;;12.47;7.73;;;0.40;85.20;;;;;;4981376;28;20515;-80
2022/02/28 01:45:54;;;;;;;11.20;8.80;;;0.50;86.70;;;;;;4980096;28;20534;-80
2022/02/28 01:48:22;;;;;;;13.35;8.60;;;0.40;88.10;;;;;;4980585;28;20459;-80
2022/02/28 01:50:49;;;;;;;11.65;9.82;;;0.40;89.20;;;;;;4980561;28;20198;-80
2022/02/28 01:53:16;;;;;;;13.07;11.88;;;0.30;90.10;;;;;;4981237;28;20710;-80
2022/02/28 01:55:43;;;;;;;15.23;13.83;;;0.10;90.60;;;;;;4980159;28;20660;-80
2022/02/28 01:58:10;;;;;;;17.10;12.77;;;0.20;90.90;;;;;;4981076;28;20470;-80
2022/02/28 02:00:37;;;;;;;17.27;15.57;;;0.00;90.90;;;;;;4980200;28;20291;-80
2022/02/28 02:03:04;;;;;;;18.40;16.80;;;0.10;91.10;;;;;;4980390;28;20224;-81
2022/02/28 02:05:33;;;;;;;23.90;21.40;;;0.00;91.50;;;;;;4980395;28;20287;-80
2022/02/28 02:08:04;;;;;;;20.23;18.40;;;0.10;91.50;;;;;;4961218;29;20697;-80
2022/02/28 02:10:31;;;;;;;21.92;20.02;;;0.00;91.70;;;;;;4961064;28;20575;-80
2022/02/28 02:12:58;;;;;;;23.58;21.80;;;0.00;92.30;;;;;;4979649;28;20294;-80
2022/02/28 02:15:25;;;;;;;29.23;27.33;;;-0.10;92.70;;;;;;4978037;28;20200;-79
2022/02/28 02:17:53;;;;;;;37.47;35.22;;;-0.10;93.20;;;;;;4979571;28;20203;-80
2022/02/28 02:20:39;;;;;;;37.78;35.42;;;-0.10;93.70;;;;;;4979560;28;20203;-80
2022/02/28 02:23:07;;;;;;;42.72;40.42;;;-0.10;93.90;;;;;;4979267;28;20619;-80
2022/02/28 02:25:35;;;;;;;44.47;41.90;;;-0.20;94.10;;;;;;4979295;28;20200;-80
2022/02/28 02:28:03;;;;;;;45.78;43.28;;;-0.10;94.30;;;;;;4979435;28;20687;-80
2022/02/28 02:30:30;;;;;;;45.22;42.53;;;-0.20;94.50;;;;;;4979033;28;20729;-80
2022/02/28 02:33:00;;;;;;;56.35;53.35;;;-0.10;94.30;;;;;;4979473;28;20208;-80
2022/02/28 02:35:27;;;;;;;58.95;55.95;;;-0.40;94.80;;;;;;4979777;28;20262;-80
2022/02/28 02:37:57;;;;;;;61.08;57.78;;;-0.20;95.00;;;;;;4979504;28;20803;-80
2022/02/28 02:40:24;;;;;;;69.60;66.18;;;-0.30;95.30;;;;;;4979484;28;20199;-80
2022/02/28 02:42:52;;;;;;;85.88;82.20;;;-0.40;95.50;;;;;;4979091;28;20227;-80
2022/02/28 02:45:18;;;;;;;80.15;76.72;;;-0.50;96.00;;;;;;4979353;28;20203;-82
2022/02/28 02:47:45;;;;;;;107.03;102.75;;;-0.40;96.60;;;;;;4980132;28;20683;-80
2022/02/28 02:50:12;;;;;;;122.38;117.68;;;-0.60;97.10;;;;;;4979728;28;20579;-80
2022/02/28 02:52:39;;;;;;;125.32;120.22;;;-0.50;97.30;;;;;;4978619;28;20227;-80
2022/02/28 02:55:08;;;;;;;155.52;149.30;;;-0.50;97.50;;;;;;4979632;28;20207;-80
2022/02/28 02:57:35;;;;;;;180.60;173.57;;;-0.70;98.50;;;;;;4978892;28;20196;-80
2022/02/28 03:00:04;;;;;;;171.63;165.07;;;-0.60;99.20;;;;;;4979130;28;20195;-80
2022/02/28 03:02:32;;;;;;;189.93;182.73;;;-0.60;99.60;;;;;;4978169;28;20234;-79
2022/02/28 03:05:02;;;;;;;185.13;178.35;;;-0.80;99.90;;;;;;4978800;28;20251;-80
2022/02/28 03:07:29;;;;;;;186.90;180.15;;;-0.80;99.90;;;;;;4977941;28;20266;-80
2022/02/28 03:09:56;;;;;;;200.88;193.63;;;-0.70;99.90;;;;;;4979764;28;20725;-81
2022/02/28 03:12:24;;;;;;;202.20;194.75;;;-0.70;99.90;;;;;;4978260;28;20211;-81
2022/02/28 03:14:52;;;;;;;230.75;222.30;;;-0.70;99.90;;;;;;4977008;28;20196;-81
2022/02/28 03:17:19;;;;;;;232.98;224.18;;;-0.70;99.90;;;;;;4977646;28;20192;-80
2022/02/28 03:19:45;;;;;;;220.80;212.90;;;-0.60;99.90;;;;;;4968811;28;20195;-81
2022/02/28 03:22:12;;;;;;;207.13;199.50;;;-0.50;99.90;;;;;;4977529;28;20223;-80
2022/02/28 03:24:39;;;;;;;220.05;211.75;;;-0.60;99.90;;;;;;4976549;28;20206;-80
2022/02/28 03:27:06;;;;;;;247.35;238.02;;;-0.60;99.90;;;;;;4979032;28;20272;-82
2022/02/28 03:29:34;;;;;;;228.45;220.45;;;-0.50;99.90;;;;;;4978416;28;20203;-83
2022/02/28 03:32:01;;;;;;;260.90;251.18;;;-0.60;99.90;;;;;;4977625;28;20708;-80
2022/02/28 03:34:28;;;;;;;221.55;212.95;;;-0.50;99.90;;;;;;4978534;28;20215;-80
2022/02/28 03:36:54;;;;;;;188.95;181.82;;;-0.40;99.90;;;;;;4975840;28;20200;-80
2022/02/28 03:39:22;;;;;;;183.88;177.27;;;-0.50;99.90;;;;;;4977100;28;20214;-80
2022/02/28 03:41:49;;;;;;;181.05;174.02;;;-0.40;99.90;;;;;;4963630;28;20212;-80
2022/02/28 03:44:16;;;;;;;151.48;145.57;;;-0.40;99.90;;;;;;4958866;28;20205;-81
2022/02/28 03:46:44;;;;;;;151.98;146.15;;;-0.30;99.90;;;;;;4958298;28;20196;-80
2022/02/28 03:49:11;;;;;;;156.90;151.30;;;-0.40;99.90;;;;;;4957470;28;20207;-80
2022/02/28 03:51:38;;;;;;;144.05;138.13;;;-0.50;99.90;;;;;;4991433;23;20231;-82
2022/02/28 03:54:06;;;;;;;144.48;138.93;;;-0.50;99.90;;;;;;4977756;28;20195;-83
2022/02/28 03:56:33;;;;;;;156.43;149.98;;;-0.50;99.90;;;;;;4976796;28;20192;-82
2022/02/28 03:58:59;;;;;;;151.90;145.68;;;-0.40;99.90;;;;;;4978671;28;20206;-83
2022/02/28 04:01:26;;;;;;;157.02;150.32;;;-0.40;99.90;;;;;;4977791;28;20208;-83
2022/02/28 04:03:54;;;;;;;151.55;145.65;;;-0.60;99.90;;;;;;4977633;28;20692;-83
2022/02/28 04:06:21;;;;;;;151.88;145.88;;;-0.50;99.90;;;;;;4978754;28;20258;-83
2022/02/28 04:08:48;;;;;;;164.63;158.45;;;-0.50;99.90;;;;;;4976398;28;20263;-82
2022/02/28 04:11:18;;;;;;;133.43;128.02;;;-0.30;99.90;;;;;;4981853;28;20195;-80
2022/02/28 04:13:44;;;;;;;126.90;121.70;;;-0.60;99.90;;;;;;4981965;28;20636;-82
2022/02/28 04:16:11;;;;;;;118.35;113.25;;;-0.60;99.90;;;;;;4980650;28;20205;-82
2022/02/28 04:18:38;;;;;;;108.28;103.78;;;-0.50;99.90;;;;;;4980670;28;20222;-83
2022/02/28 04:21:07;;;;;;;88.50;84.60;;;-0.30;99.60;;;;;;4980607;28;20211;-83
2022/02/28 04:23:33;;;;;;;69.60;66.03;;;-0.20;99.00;;;;;;4981177;28;20215;-83
2022/02/28 04:26:01;;;;;;;63.00;59.77;;;-0.30;98.30;;;;;;4981850;28;20191;-82
2022/02/28 04:28:28;;;;;;;58.08;55.17;;;0.10;98.20;;;;;;4979979;28;20455;-83
2022/02/28 04:30:54;;;;;;;52.80;49.95;;;-0.30;98.00;;;;;;4981381;28;20287;-83
2022/02/28 04:33:24;;;;;;;63.78;59.60;;;0.00;98.00;;;;;;4981291;28;20212;-82
2022/02/28 04:35:51;;;;;;;67.18;63.75;;;-0.20;98.40;;;;;;4980148;28;20202;-83
2022/02/28 04:38:20;;;;;;;63.75;60.42;;;-0.20;98.30;;;;;;4981508;28;20202;-83
2022/02/28 04:40:47;;;;;;;61.30;58.20;;;-0.30;98.40;;;;;;4981528;28;20203;-83
2022/02/28 04:43:14;;;;;;;58.28;54.97;;;-0.20;98.30;;;;;;4980952;28;20222;-84
2022/02/28 04:45:41;;;;;;;68.43;65.10;;;-0.40;98.30;;;;;;4980798;28;20196;-82
2022/02/28 04:48:43;;;;;;;86.28;82.10;;;-0.60;98.40;;;;;;4980915;28;20680;-79
2022/02/28 04:51:10;;;;;;;86.32;82.63;;;-0.40;99.10;;;;;;4982940;28;20202;-82
2022/02/28 04:53:38;;;;;;;109.53;105.00;;;-0.50;99.40;;;;;;4980584;28;20223;-82
2022/02/28 04:56:05;;;;;;;110.07;104.57;;;-0.60;99.90;;;;;;4979542;28;20200;-83
2022/02/28 04:58:32;;;;;;;132.65;127.55;;;-0.60;99.90;;;;;;4979810;28;20204;-82
2022/02/28 05:00:59;;;;;;;127.85;122.32;;;-0.60;99.90;;;;;;4979906;28;20286;-81
2022/02/28 05:03:26;;;;;;;146.13;140.55;;;-0.60;99.90;;;;;;4981161;28;20230;-82
2022/02/28 05:05:53;;;;;;;149.07;142.98;;;-0.50;99.90;;;;;;4980969;28;20282;-82
2022/02/28 05:08:21;;;;;;;165.02;158.38;;;-0.70;99.90;;;;;;4979409;28;20275;-83
2022/02/28 05:10:49;;;;;;;191.95;184.88;;;-0.80;99.90;;;;;;4981160;28;20221;-82
2022/02/28 05:13:16;;;;;;;244.20;234.82;;;-0.50;99.90;;;;;;4980473;28;20214;-82
2022/02/28 05:15:43;;;;;;;260.50;250.38;;;-0.90;99.90;;;;;;4980224;28;20687;-82
2022/02/28 05:18:12;;;;;;;274.83;264.48;;;-1.10;99.90;;;;;;4981006;28;20231;-80
2022/02/28 05:20:39;;;;;;;270.92;260.50;;;-1.00;99.90;;;;;;4979724;28;20282;-83
2022/02/28 05:23:06;;;;;;;283.27;272.10;;;-1.00;99.90;;;;;;4979774;28;20219;-82
2022/02/28 05:25:33;;;;;;;278.75;268.00;;;-1.10;99.90;;;;;;4981274;28;20203;-83
2022/02/28 05:28:01;;;;;;;276.15;265.13;;;-1.10;99.90;;;;;;4979261;28;20196;-83
2022/02/28 05:30:28;;;;;;;271.80;260.55;;;-1.00;99.90;;;;;;4979978;28;20275;-82
2022/02/28 05:32:55;;;;;;;286.27;274.83;;;-1.00;99.90;;;;;;4979053;28;20230;-81
2022/02/28 05:35:22;;;;;;;290.15;278.67;;;-1.00;99.90;;;;;;4964378;28;20288;-82
2022/02/28 05:37:49;;;;;;;296.88;284.83;;;-1.00;99.90;;;;;;4981077;28;20196;-82
2022/02/28 05:40:16;;;;;;;298.17;286.27;;;-1.10;99.90;;;;;;4978883;28;20196;-83
2022/02/28 05:42:43;;;;;;;299.05;287.17;;;-1.00;99.90;;;;;;4980523;28;20216;-83
2022/02/28 05:45:11;;;;;;;301.52;289.38;;;-1.00;99.90;;;;;;4979974;28;20195;-82
2022/02/28 05:47:42;;;;;;;314.65;302.40;;;-1.10;99.90;;;;;;4980096;28;20215;-84
2022/02/28 05:50:09;;;;;;;300.52;288.73;;;-1.10;99.90;;;;;;4980749;28;20203;-83
2022/02/28 05:52:36;;;;;;;308.52;296.35;;;-1.00;99.90;;;;;;4978639;28;20220;-82
2022/02/28 05:55:03;;;;;;;308.50;296.17;;;-1.10;99.90;;;;;;4979202;28;20200;-83
2022/02/28 05:57:35;;;;;;;285.67;274.38;;;-1.10;99.90;;;;;;4981013;28;20200;-84
2022/02/28 06:00:02;;;;;;;283.40;272.10;;;-1.10;99.90;;;;;;4980427;28;20188;-82
2022/02/28 06:02:30;;;;;;;301.92;289.73;;;-1.10;99.90;;;;;;4981048;28;20307;-83
2022/02/28 06:04:57;;;;;;;286.33;275.33;;;-1.10;99.90;;;;;;4981453;28;20227;-83
2022/02/28 06:07:23;;;;;;;308.10;295.38;;;-1.20;99.90;;;;;;4979797;28;20226;-83
2022/02/28 06:09:50;;;;;;;312.73;299.88;;;-1.20;99.90;;;;;;4980284;28;20204;-84
2022/02/28 06:12:17;;;;;;;311.77;298.83;;;-1.00;99.90;;;;;;4979858;28;20220;-84
2022/02/28 06:14:43;;;;;;;301.80;289.50;;;-1.20;99.90;;;;;;4981071;28;20192;-84
2022/02/28 06:17:17;;;;;;;312.75;300.05;;;-1.10;99.90;;;;;;4981600;28;20203;-83
2022/02/28 06:20:12;;;;;;;308.67;296.50;;;-1.00;99.90;;;;;;4981587;28;20180;-84
2022/02/28 06:22:44;;;;;;;302.58;290.27;;;-1.00;99.90;;;;;;4976824;28;20232;-84
2022/02/28 06:25:17;;;;;;;301.08;289.23;;;-0.90;99.90;;;;;;4980289;28;20227;-84
2022/02/28 06:27:55;;;;;;;297.70;285.35;;;-1.10;99.90;;;;;;4981492;28;20206;-84
2022/02/28 06:30:22;;;;;;;298.48;286.58;;;-1.10;99.90;;;;;;4980534;28;20205;-83
2022/02/28 06:32:57;;;;;;;305.55;293.48;;;-1.20;99.90;;;;;;4979634;28;20207;-83
2022/02/28 06:35:37;;;;;;;321.58;308.88;;;-1.20;99.90;;;;;;4979280;28;20187;-83
2022/02/28 06:38:04;;;;;;;341.85;327.85;;;-1.10;99.90;;;;;;4979425;28;20199;-83
2022/02/28 06:40:36;;;;;;;320.05;307.15;;;-1.00;99.90;;;;;;4979965;28;20192;-84
2022/02/28 06:43:14;;;;;;;303.40;290.80;;;-0.90;99.90;;;;;;4979939;28;20219;-83
2022/02/28 06:45:41;;;;;;;295.45;283.30;;;-0.90;99.90;;;;;;4980014;28;20616;-84
2022/02/28 06:48:08;;;;;;;280.50;269.45;;;-0.80;99.90;;;;;;4973587;28;20203;-82
2022/02/28 06:50:36;;;;;;;245.05;235.95;;;-0.50;99.90;;;;;;4978535;28;20211;-84
2022/02/28 06:53:03;;;;;;;231.80;222.80;;;-0.60;99.90;;;;;;4980062;28;20306;-84
2022/02/28 06:55:30;;;;;;;201.73;193.65;;;-0.40;99.90;;;;;;4980061;28;20203;-84
2022/02/28 06:57:56;;;;;;;189.50;182.30;;;-0.30;99.90;;;;;;4978156;28;20234;-83
2022/02/28 07:00:23;;;;;;;158.18;151.82;;;-0.40;99.90;;;;;;4979706;28;20208;-83
2022/02/28 07:02:50;;;;;;;146.48;140.52;;;-0.20;99.90;;;;;;4977142;28;20219;-84
2022/02/28 07:05:17;;;;;;;121.35;116.43;;;-0.10;99.90;;;;;;4979142;28;20200;-85
2022/02/28 07:07:45;;;;;;;97.80;93.35;;;-0.10;99.80;;;;;;4990545;28;20199;-85
2022/02/28 07:10:13;;;;;;;83.93;79.68;;;0.00;99.30;;;;;;4996896;28;20168;-84
2022/02/28 07:12:40;;;;;;;78.78;74.78;;;0.10;99.10;;;;;;4997105;28;20215;-83
2022/02/28 07:15:09;;;;;;;66.88;63.58;;;0.00;98.70;;;;;;4980174;28;20199;-84
2022/02/28 07:17:35;;;;;;;52.25;49.33;;;0.10;98.40;;;;;;4980203;28;20196;-83
2022/02/28 07:20:03;;;;;;;41.88;39.00;;;0.10;97.60;;;;;;4980017;28;20207;-84
2022/02/28 07:22:29;;;;;;;31.47;29.30;;;0.20;96.70;;;;;;4979138;28;20219;-84
2022/02/28 07:24:57;;;;;;;31.30;28.67;;;0.50;95.80;;;;;;4988467;28;20458;-84
2022/02/28 07:27:24;;;;;;;23.20;21.00;;;0.40;95.20;;;;;;4996558;28;20458;-83
2022/02/28 07:29:51;;;;;;;19.50;17.37;;;0.70;94.50;;;;;;4996414;28;20202;-84
2022/02/28 07:32:18;;;;;;;18.70;16.90;;;0.80;94.20;;;;;;4996913;28;20463;-83
2022/02/28 07:34:45;;;;;;;18.88;16.85;;;0.70;93.70;;;;;;4979897;28;20567;-84
2022/02/28 07:37:12;;;;;;;19.57;15.33;;;0.70;93.50;;;;;;4977710;28;20188;-85
2022/02/28 07:39:38;;;;;;;19.53;15.60;;;1.00;93.10;;;;;;4976759;28;20473;-84
2022/02/28 07:42:07;;;;;;;18.50;14.40;;;1.00;92.80;;;;;;4977468;28;20475;-84
2022/02/28 07:44:34;;;;;;;16.23;13.87;;;1.00;92.30;;;;;;4977608;28;20483;-84
2022/02/28 07:47:00;;;;;;;18.83;15.55;;;1.20;92.40;;;;;;4977740;28;20459;-85
2022/02/28 07:49:33;;;;;;;19.03;13.97;;;1.10;92.10;;;;;;4977461;28;20196;-84
2022/02/28 07:52:00;;;;;;;16.63;13.00;;;1.30;91.90;;;;;;4976282;28;21015;-83
2022/02/28 07:55:15;;;;;;;15.10;12.57;;;1.30;91.40;;;;;;4979711;28;20450;-85
2022/02/28 07:57:43;;;;;;;18.33;13.27;;;1.50;91.50;;;;;;4955186;29;20456;-82
2022/02/28 08:00:11;;;;;;;15.97;12.60;;;1.50;91.20;;;;;;4972734;28;20450;-82
2022/02/28 08:02:38;;;;;;;18.13;13.10;;;1.60;91.10;;;;;;4970289;28;20537;-82
2022/02/28 08:05:06;;;;;;;13.70;11.50;;;1.80;90.70;;;;;;4975608;28;20835;-84
2022/02/28 08:07:33;;;;;;;15.17;12.03;;;1.60;90.40;;;;;;4974902;28;20489;-83
2022/02/28 08:10:00;;;;;;;19.30;12.17;;;1.90;89.00;;;;;;4975995;28;20459;-83
2022/02/28 08:12:28;;;;;;;16.83;10.30;;;2.00;87.80;;;;;;4975969;28;20996;-82
2022/02/28 08:14:56;;;;;;;14.40;11.80;;;2.00;86.40;;;;;;4974194;28;20463;-84
2022/02/28 08:17:23;;;;;;;18.23;12.03;;;2.10;86.00;;;;;;4975892;28;20478;-83
2022/02/28 08:19:50;;;;;;;15.90;11.40;;;2.20;83.80;;;;;;4975923;28;20459;-82
2022/02/28 08:22:17;;;;;;;14.80;10.37;;;2.30;84.80;;;;;;4974960;28;20474;-83
2022/02/28 08:24:43;;;;;;;15.93;10.55;;;2.40;82.60;;;;;;4976231;28;20478;-84
2022/02/28 08:27:10;;;;;;;20.40;11.43;;;2.50;82.00;;;;;;4976793;28;20200;-83
2022/02/28 08:29:37;;;;;;;15.37;11.40;;;2.70;80.90;;;;;;4976223;28;20455;-84
2022/02/28 08:32:06;;;;;;;16.20;10.20;;;2.90;80.70;;;;;;4975529;28;20820;-83
2022/02/28 08:34:32;;;;;;;19.43;10.93;;;2.90;76.80;;;;;;4974922;28;20458;-83
2022/02/28 08:36:59;;;;;;;19.13;10.63;;;3.00;77.00;;;;;;4976228;28;20455;-84
2022/02/28 08:39:26;;;;;;;15.53;10.73;;;3.10;75.30;;;;;;4971309;28;20447;-83
2022/02/28 08:41:53;;;;;;;13.00;8.83;;;3.20;73.80;;;;;;4974228;28;20486;-83
2022/02/28 08:44:19;;;;;;;14.80;9.67;;;3.40;70.80;;;;;;4977068;28;20474;-84
2022/02/28 08:46:46;;;;;;;18.87;10.27;;;3.40;72.00;;;;;;4975976;28;20459;-82
2022/02/28 08:49:16;;;;;;;16.80;9.67;;;3.60;70.70;;;;;;4975372;28;20455;-82
2022/02/28 08:51:43;;;;;;;15.10;9.87;;;3.80;66.70;;;;;;4975821;28;20486;-84
2022/02/28 08:54:10;;;;;;;13.10;8.50;;;3.90;65.90;;;;;;4976351;28;20462;-83
2022/02/28 08:56:37;;;;;;;17.27;10.07;;;3.90;66.20;;;;;;4977708;28;20462;-83
2022/02/28 08:59:04;;;;;;;15.93;10.33;;;4.00;64.20;;;;;;4979747;28;20833;-83
2022/02/28 09:01:30;;;;;;;16.50;11.30;;;4.10;65.00;;;;;;4979959;28;20485;-84
2022/02/28 09:03:57;;;;;;;16.00;9.10;;;4.20;61.00;;;;;;4979946;28;20483;-83
2022/02/28 09:06:27;;;;;;;16.50;10.10;;;4.30;60.40;;;;;;4979827;28;20462;-83
2022/02/28 09:08:54;;;;;;;14.63;9.63;;;4.40;58.90;;;;;;4981165;28;20805;-83
2022/02/28 09:11:22;;;;;;;14.70;8.07;;;4.50;58.20;;;;;;4979897;28;20459;-84
2022/02/28 09:13:49;;;;;;;15.30;9.97;;;4.70;56.80;;;;;;4980905;28;20482;-84
2022/02/28 09:16:16;;;;;;;18.33;9.17;;;4.80;55.50;;;;;;4980605;28;20462;-82
2022/02/28 09:18:43;;;;;;;12.37;8.40;;;4.90;54.60;;;;;;4980859;28;20558;-82
2022/02/28 09:21:10;;;;;;;17.93;10.30;;;5.20;52.40;;;;;;4980280;28;20455;-82
2022/02/28 09:23:38;;;;;;;15.90;9.73;;;5.40;52.30;;;;;;4979324;28;20486;-82
2022/02/28 09:26:06;;;;;;;16.20;9.23;;;5.80;49.90;;;;;;4980004;28;20455;-82
2022/02/28 09:28:32;;;;;;;12.70;8.87;;;6.00;46.30;;;;;;4980035;28;20986;-82
2022/02/28 09:30:59;;;;;;;16.20;9.60;;;6.60;42.90;;;;;;4979872;28;20525;-82
2022/02/28 09:33:26;;;;;;;14.63;9.70;;;6.90;42.50;;;;;;4980132;28;21003;-81
2022/02/28 09:35:54;;;;;;;14.03;9.37;;;7.30;39.60;;;;;;4979694;28;20843;-82
2022/02/28 09:38:22;;;;;;;12.93;8.63;;;7.50;38.00;;;;;;4979154;28;20455;-82
2022/02/28 09:41:12;;;;;;;13.70;8.27;;;7.60;38.00;;;;;;4985414;28;20641;-84
2022/02/28 09:43:39;;;;;;;14.27;8.83;;;7.80;36.70;;;;;;4984640;28;20700;-82
2022/02/28 09:46:06;;;;;;;13.37;8.60;;;8.00;33.00;;;;;;4980099;28;20451;-82
2022/02/28 09:48:33;;;;;;;14.00;9.73;;;8.50;34.10;;;;;;4978848;28;20463;-84
2022/02/28 09:51:00;;;;;;;13.97;9.03;;;8.70;31.90;;;;;;4982686;28;20463;-83
2022/02/28 09:53:27;;;;;;;22.33;9.40;;;8.80;31.40;;;;;;4980030;23;20491;-82
2022/02/28 09:55:55;;;;;;;14.50;9.20;;;8.80;27.30;;;;;;4957535;29;20465;-83
2022/02/28 09:58:27;;;;;;;11.13;8.67;;;9.00;27.10;;;;;;4956827;28;20456;-83
2022/02/28 10:00:54;;;;;;;12.60;9.23;;;9.00;27.10;;;;;;4957177;29;20459;-83
2022/02/28 10:03:21;;;;;;;13.93;9.50;;;9.20;27.20;;;;;;4957501;28;20478;-83
2022/02/28 10:05:48;;;;;;;13.73;8.37;;;9.20;27.20;;;;;;4957840;29;20459;-83
2022/02/28 10:08:15;;;;;;;11.80;9.30;;;9.60;25.50;;;;;;4955740;28;20486;-84
2022/02/28 10:10:44;;;;;;;15.97;10.20;;;9.50;26.20;;;;;;4957401;29;20463;-82
2022/02/28 10:13:12;;;;;;;13.73;9.47;;;9.90;26.90;;;;;;4956735;28;20590;-82
2022/02/28 10:15:39;;;;;;;15.47;10.00;;;9.90;23.60;;;;;;4956405;29;20463;-82
2022/02/28 10:18:07;;;;;;;15.37;8.77;;;10.30;23.80;;;;;;4956498;29;20462;-81
2022/02/28 10:20:36;;;;;;;14.40;9.80;;;10.50;22.20;;;;;;4956034;29;20814;-82
2022/02/28 10:23:04;;;;;;;18.07;9.50;;;10.60;23.40;;;;;;4956191;28;20483;-83
2022/02/28 10:25:34;;;;;;;17.10;9.40;;;10.70;20.80;;;;;;4956674;29;20847;-83
2022/02/28 10:28:24;;;;;;;15.53;8.97;;;11.20;20.70;;;;;;4956984;29;20460;-84
2022/02/28 10:30:58;;;;;;;15.13;9.47;;;11.10;19.20;;;;;;4953452;28;20462;-82
2022/02/28 10:33:30;;;;;;;15.07;10.10;;;11.10;20.60;;;;;;4956529;28;20852;-82
2022/02/28 10:36:10;;;;;;;13.97;9.97;;;10.60;18.60;;;;;;4956441;29;20456;-83
2022/02/28 10:38:42;;;;;;;13.33;9.97;;;10.90;18.10;;;;;;4956524;29;20456;-83
2022/02/28 10:41:17;;;;;;;15.80;9.90;;;11.10;18.10;;;;;;4956408;28;20452;-82
2022/02/28 10:43:46;;;;;;;13.33;8.60;;;11.10;17.90;;;;;;4956254;28;20494;-82
2022/02/28 10:46:18;;;;;;;14.87;9.50;;;11.20;16.10;;;;;;4956181;29;20489;-82
2022/02/28 10:48:56;;;;;;;15.27;9.73;;;11.40;18.50;;;;;;4955714;29;20464;-83
2022/02/28 10:51:23;;;;;;;14.80;9.00;;;11.90;17.30;;;;;;4956002;29;20889;-83
2022/02/28 10:54:06;;;;;;;13.90;8.40;;;12.00;16.10;;;;;;4956081;28;20488;-82
2022/02/28 10:56:46;;;;;;;12.87;9.07;;;11.90;12.20;;;;;;4956724;29;20461;-82
2022/02/28 10:59:14;;;;;;;15.53;9.80;;;11.40;11.80;;;;;;4956572;29;20462;-82
2022/02/28 11:01:41;;;;;;;15.00;9.07;;;11.40;13.50;;;;;;4956675;29;20541;-83
2022/02/28 11:04:08;;;;;;;12.63;8.60;;;12.10;14.00;;;;;;4957096;29;20907;-82
2022/02/28 11:06:37;;;;;;;14.03;9.10;;;12.00;12.10;;;;;;4956581;29;20460;-82
2022/02/28 11:09:05;;;;;;;14.57;9.00;;;11.60;11.40;;;;;;4955895;29;20458;-82
2022/02/28 11:11:33;;;;;;;12.33;9.47;;;11.80;12.00;;;;;;4956320;29;20459;-83
2022/02/28 11:14:00;;;;;;;11.03;8.00;;;11.90;12.20;;;;;;4956004;28;20474;-82
2022/02/28 11:16:30;;;;;;;12.77;8.20;;;12.00;7.90;;;;;;4955779;29;20463;-82
2022/02/28 11:18:57;;;;;;;13.30;8.70;;;12.00;8.00;;;;;;4955243;28;20453;-82
2022/02/28 11:21:24;;;;;;;14.10;9.67;;;12.10;5.50;;;;;;4956188;29;20466;-83
2022/02/28 11:23:51;;;;;;;13.77;8.70;;;11.90;7.10;;;;;;4955982;28;20484;-82
2022/02/28 11:26:18;;;;;;;14.73;8.77;;;12.20;5.40;;;;;;4956216;29;20466;-82
2022/02/28 11:28:46;;;;;;;12.80;9.10;;;12.30;5.10;;;;;;4955914;29;20466;-83
2022/02/28 11:31:15;;;;;;;14.00;10.13;;;12.40;4.40;;;;;;4956132;29;20538;-83
2022/02/28 11:33:59;;;;;;;13.83;9.37;;;12.50;5.90;;;;;;4956689;28;20913;-82
2022/02/28 11:36:26;;;;;;;13.10;8.87;;;12.80;4.70;;;;;;4955592;29;20479;-82
2022/02/28 11:38:52;;;;;;;14.33;9.00;;;12.80;4.60;;;;;;4956921;28;20506;-83
2022/02/28 11:41:20;;;;;;;12.57;8.70;;;12.50;2.30;;;;;;4955363;28;20467;-84
2022/02/28 11:43:48;;;;;;;17.33;8.23;;;12.40;3.30;;;;;;4955281;28;20867;-82
2022/02/28 11:46:18;;;;;;;16.30;9.00;;;12.30;3.10;;;;;;4955313;29;20828;-82
2022/02/28 11:48:47;;;;;;;11.33;8.80;;;12.30;1.00;;;;;;4954886;29;20459;-83
2022/02/28 11:51:28;;;;;;;12.80;8.50;;;12.60;1.70;;;;;;4955386;29;20873;-82
2022/02/28 11:53:56;;;;;;;14.43;8.37;;;12.60;1.00;;;;;;4954878;28;20564;-82
2022/02/28 11:56:58;;;;;;;13.43;9.23;;;12.80;5.70;;;;;;4955459;29;20458;-85
2022/02/28 11:59:27;;;;;;;13.20;8.20;;;13.10;1.00;;;;;;4955454;29;20466;-83
2022/02/28 12:02:01;;;;;;;12.97;8.63;;;12.70;1.00;;;;;;4955080;28;20463;-82
2022/02/28 12:04:42;;;;;;;12.67;9.07;;;13.10;1.00;;;;;;4955133;29;20542;-82
2022/02/28 12:07:28;;;;;;;13.83;7.80;;;13.30;2.00;;;;;;4955114;29;20478;-82
2022/02/28 12:10:03;;;;;;;11.60;7.63;;;13.90;1.00;;;;;;4955218;29;20462;-82
2022/02/28 12:12:33;;;;;;;11.80;7.97;;;14.00;1.00;;;;;;4956770;28;20483;-83
2022/02/28 12:15:20;;;;;;;12.03;8.20;;;13.70;1.00;;;;;;4957616;29;20897;-83
2022/02/28 12:18:04;;;;;;;10.90;7.87;;;13.60;1.00;;;;;;4956064;29;20466;-82
2022/02/28 12:20:32;;;;;;;11.10;7.83;;;13.80;1.00;;;;;;4955425;29;20457;-82
2022/02/28 12:23:21;;;;;;;12.73;8.23;;;14.40;1.00;;;;;;4954815;28;20504;-83
2022/02/28 12:25:59;;;;;;;11.80;7.50;;;14.60;1.00;;;;;;4956360;29;20472;-83
2022/02/28 12:28:29;;;;;;;11.27;7.97;;;14.70;1.00;;;;;;4954825;29;20464;-82
2022/02/28 12:30:58;;;;;;;10.53;6.90;;;14.30;1.00;;;;;;4955873;28;20844;-83
2022/02/28 12:33:26;;;;;;;11.47;7.80;;;13.50;1.00;;;;;;4959248;28;20477;-83
2022/02/28 12:35:56;;;;;;;11.47;8.23;;;13.70;1.00;;;;;;4959478;29;20879;-82
2022/02/28 12:38:25;;;;;;;11.60;8.63;;;14.40;1.00;;;;;;4959339;29;20878;-82
2022/02/28 12:40:54;;;;;;;11.83;8.00;;;13.90;1.00;;;;;;4959993;29;20959;-83